Decoded Metar for EHVK (VOLKEL RNLAFB in NETHERLANDS) (IATA:N/A) | Meteo·Mobile Aviation Weather
aviador You're here:

EHVK Decoded Metar

VOLKEL RNLAFB in NETHERLANDS
Report Time2018-11-14 10:45:00
UTC Time2018-11-14 10:53:01
Flight Rules vfr VFR
Wind200° at 07 kt
W.Decomp.*RWY 24: 5.3 kt HW 4.6 kt LCW
W.Rank200° ranks 5
Current wind is below 200° avg. (8.3)
Visibility9999 m
Phenomena:N/A
Clouds:Overcast 340 Hf
Expected CloudBase > 1,200 ft AGL from Temp-Dew spread
Ceiling34,000 ft
Temp11°C (ISA -4)
Dew Point08°C (82% RH)
AAT8.0°C
QNH1028 hPa
Density Alt-755 ft
Elevation69 ft
Report Wrong Elevation
Raw Report
EHVK 141045Z AUTO 20007KT 140V220 9999 OVC340/// 11/08 Q1028 BLU
18006KT CAVOK=

Extra information for EHVK:More info

Metar Taf Metar & Taf Last 4 Metars F.Rules Stats Wind Profile Meteogram Temp Stats Airport Information Weather charts Add Link Nearby VenuesMetar ALERT Operation Metar Decoded Social comments